createdAt,value
2023-05-23T00:00:06.021Z,16.99
2023-05-23T00:01:05.958Z,17.11
2023-05-23T00:02:05.995Z,17.02
2023-05-23T00:03:06.034Z,17.04
2023-05-23T00:04:05.924Z,17.05
2023-05-23T00:05:05.904Z,17.05
2023-05-23T00:06:05.812Z,16.99
2023-05-23T00:07:05.777Z,16.90
2023-05-23T00:08:05.802Z,16.91
2023-05-23T00:09:05.725Z,16.96
2023-05-23T00:10:05.683Z,16.89
2023-05-23T00:11:05.669Z,16.97
2023-05-23T00:12:05.628Z,16.89
2023-05-23T00:13:05.608Z,16.87
2023-05-23T00:14:05.616Z,16.87
2023-05-23T00:15:05.548Z,16.83
2023-05-23T00:16:05.507Z,16.79
2023-05-23T00:17:05.603Z,16.81
2023-05-23T00:18:05.454Z,16.83
2023-05-23T00:19:05.549Z,16.79
2023-05-23T00:20:05.379Z,16.78
2023-05-23T00:21:05.434Z,16.74
2023-05-23T00:22:05.327Z,16.78
2023-05-23T00:23:05.326Z,16.75
2023-05-23T00:24:05.277Z,16.81
2023-05-23T00:25:05.317Z,16.81
2023-05-23T00:26:05.230Z,16.79
2023-05-23T00:27:05.187Z,16.69
2023-05-23T00:28:05.164Z,16.74
2023-05-23T00:29:05.123Z,16.71
2023-05-23T00:30:05.185Z,16.75
2023-05-23T00:31:05.077Z,16.78
2023-05-23T00:32:05.038Z,16.79
2023-05-23T00:33:05.076Z,16.71
2023-05-23T00:34:04.980Z,16.72
2023-05-23T00:35:05.016Z,16.68
2023-05-23T00:36:04.941Z,16.61
2023-05-23T00:37:04.988Z,16.66
2023-05-23T00:38:04.871Z,16.64
2023-05-23T00:39:04.839Z,16.53
2023-05-23T00:40:04.863Z,16.58
2023-05-23T00:41:04.793Z,16.53
2023-05-23T00:42:04.780Z,16.54
2023-05-23T00:43:04.718Z,16.58
2023-05-23T00:44:04.701Z,16.51
2023-05-23T00:45:04.717Z,16.56
2023-05-23T00:46:04.662Z,16.56
2023-05-23T00:47:04.643Z,16.49
2023-05-23T00:48:04.611Z,16.57
2023-05-23T00:49:04.543Z,16.58
2023-05-23T00:50:04.566Z,16.53
2023-05-23T00:51:04.555Z,16.54
2023-05-23T00:52:04.467Z,16.53
2023-05-23T00:53:04.489Z,16.47
2023-05-23T00:54:04.384Z,16.47
2023-05-23T00:55:04.362Z,16.47
2023-05-23T00:56:04.353Z,16.47
2023-05-23T00:57:04.366Z,16.49
2023-05-23T00:58:04.278Z,16.47
2023-05-23T00:59:04.344Z,16.46
2023-05-23T01:00:04.248Z,16.46
2023-05-23T01:01:04.199Z,16.42
2023-05-23T01:02:04.242Z,16.43
2023-05-23T01:03:04.298Z,16.49
2023-05-23T01:04:04.161Z,16.39
2023-05-23T01:05:04.101Z,16.38
2023-05-23T01:06:04.070Z,16.38
2023-05-23T01:07:04.873Z,16.42
2023-05-23T01:08:04.003Z,16.33
2023-05-23T01:09:04.080Z,16.32
2023-05-23T01:10:03.961Z,16.28
2023-05-23T01:11:03.885Z,16.28
2023-05-23T01:12:03.860Z,16.31
2023-05-23T01:13:03.842Z,16.26
2023-05-23T01:14:03.850Z,16.26
2023-05-23T01:15:03.772Z,16.26
2023-05-23T01:16:03.812Z,16.28
2023-05-23T01:17:03.700Z,16.29
2023-05-23T01:18:03.841Z,16.35
2023-05-23T01:19:03.704Z,16.28
2023-05-23T01:20:03.647Z,16.24
2023-05-23T01:21:03.632Z,16.24
2023-05-23T01:22:03.569Z,16.23
2023-05-23T01:23:03.547Z,16.24
2023-05-23T01:24:03.649Z,16.31
2023-05-23T01:25:03.529Z,16.28
2023-05-23T01:26:03.450Z,16.23
2023-05-23T01:27:03.406Z,16.28
2023-05-23T01:28:03.382Z,16.17
2023-05-23T01:29:03.349Z,16.21
2023-05-23T01:30:03.367Z,16.24
2023-05-23T01:31:03.306Z,16.17
2023-05-23T01:32:03.345Z,16.31
2023-05-23T01:33:03.353Z,16.20
2023-05-23T01:34:03.226Z,16.20
2023-05-23T01:35:03.255Z,16.05
2023-05-23T01:36:03.139Z,16.08
2023-05-23T01:37:03.116Z,16.01
2023-05-23T01:38:03.087Z,16.05
2023-05-23T01:39:03.040Z,16.05
2023-05-23T01:40:03.128Z,16.05
2023-05-23T01:41:03.069Z,16.04
2023-05-23T01:42:02.986Z,16.05
2023-05-23T01:43:02.928Z,16.09
2023-05-23T01:44:02.929Z,16.05
2023-05-23T01:45:02.876Z,16.12
2023-05-23T01:46:02.947Z,16.02
2023-05-23T01:47:02.813Z,16.05
2023-05-23T01:48:02.870Z,16.13
2023-05-23T01:49:02.762Z,16.12
2023-05-23T01:50:02.722Z,16.20
2023-05-23T01:51:02.698Z,16.17
2023-05-23T01:52:02.720Z,16.23
2023-05-23T01:53:02.630Z,16.21
2023-05-23T01:54:02.599Z,16.23
2023-05-23T01:55:02.594Z,16.23
2023-05-23T01:56:02.564Z,16.21
2023-05-23T01:57:02.578Z,16.23
2023-05-23T01:58:02.538Z,16.28
2023-05-23T01:59:02.480Z,16.29
2023-05-23T02:00:02.430Z,16.28
2023-05-23T02:01:02.444Z,16.35
2023-05-23T02:02:02.394Z,16.35
2023-05-23T02:03:02.385Z,16.42
2023-05-23T02:04:02.485Z,16.50
2023-05-23T02:05:02.288Z,16.50
2023-05-23T02:06:02.249Z,16.42
2023-05-23T02:07:02.223Z,16.41
2023-05-23T02:08:02.183Z,16.53
2023-05-23T02:09:02.181Z,16.51
2023-05-23T02:10:02.183Z,16.39
2023-05-23T02:11:02.099Z,16.42
2023-05-23T02:12:02.077Z,16.46
2023-05-23T02:13:02.109Z,16.39
2023-05-23T02:14:02.022Z,16.41
2023-05-23T02:15:01.984Z,16.31
2023-05-23T02:16:02.064Z,16.31
2023-05-23T02:17:01.964Z,16.36
2023-05-23T02:18:01.902Z,16.24
2023-05-23T02:19:01.895Z,16.31
2023-05-23T02:20:01.837Z,16.26
2023-05-23T02:21:01.804Z,16.26
2023-05-23T02:22:01.823Z,16.29
2023-05-23T02:23:01.741Z,16.26
2023-05-23T02:24:01.733Z,16.33
2023-05-23T02:25:01.703Z,16.29
2023-05-23T02:26:01.656Z,16.28
2023-05-23T02:27:01.661Z,16.41
2023-05-23T02:28:01.644Z,16.31
2023-05-23T02:29:01.636Z,16.26
2023-05-23T02:30:01.529Z,16.29
2023-05-23T02:31:01.596Z,16.31
2023-05-23T02:32:01.475Z,16.28
2023-05-23T02:33:01.476Z,16.28
2023-05-23T02:34:01.466Z,16.33
2023-05-23T02:35:01.396Z,16.29
2023-05-23T02:36:01.379Z,16.29
2023-05-23T02:37:01.326Z,16.35
2023-05-23T02:38:01.355Z,16.29
2023-05-23T02:39:01.336Z,16.33
2023-05-23T02:40:01.248Z,16.31
2023-05-23T02:41:01.209Z,16.35
2023-05-23T02:42:01.214Z,16.31
2023-05-23T02:43:01.151Z,16.28
2023-05-23T02:44:01.118Z,16.36
2023-05-23T02:45:01.218Z,16.42
2023-05-23T02:46:01.076Z,16.31
2023-05-23T02:47:01.028Z,16.24
2023-05-23T02:48:01.033Z,16.32
2023-05-23T02:49:00.977Z,16.31
2023-05-23T02:50:00.948Z,16.29
2023-05-23T02:51:01.043Z,16.35
2023-05-23T02:52:00.881Z,16.29
2023-05-23T02:53:00.914Z,16.31
2023-05-23T02:54:00.882Z,16.28
2023-05-23T02:55:00.830Z,16.28
2023-05-23T02:56:00.760Z,16.28
2023-05-23T02:57:00.801Z,16.32
2023-05-23T02:58:00.694Z,16.29
2023-05-23T02:59:00.669Z,16.31
2023-05-23T03:00:00.661Z,16.29
2023-05-23T03:01:00.685Z,16.32
2023-05-23T03:02:00.629Z,16.31
2023-05-23T03:03:00.700Z,16.31
2023-05-23T03:04:00.656Z,16.28
2023-05-23T03:05:00.515Z,16.31
2023-05-23T03:06:00.487Z,16.28
2023-05-23T03:07:00.458Z,16.26
2023-05-23T03:08:00.413Z,16.24
2023-05-23T03:09:00.438Z,16.23
2023-05-23T03:10:00.363Z,16.26
2023-05-23T03:11:00.322Z,16.26
2023-05-23T03:12:00.350Z,16.24
2023-05-23T03:13:00.286Z,16.28
2023-05-23T03:14:00.257Z,16.29
2023-05-23T03:15:00.308Z,16.20
2023-05-23T03:16:00.246Z,16.23
2023-05-23T03:17:00.219Z,16.26
2023-05-23T03:18:00.151Z,16.21
2023-05-23T03:19:00.127Z,16.21
2023-05-23T03:20:00.145Z,16.26
2023-05-23T03:21:00.054Z,16.16
2023-05-23T03:22:00.001Z,16.17
2023-05-23T03:22:59.991Z,16.23
2023-05-23T03:23:59.955Z,16.16
2023-05-23T03:24:59.914Z,16.24
2023-05-23T03:25:59.934Z,16.28
2023-05-23T03:26:59.843Z,16.35
2023-05-23T03:27:59.831Z,16.36
2023-05-23T03:28:59.805Z,16.35
2023-05-23T03:29:59.758Z,16.50
2023-05-23T03:30:59.787Z,16.46
2023-05-23T03:31:59.730Z,16.53
2023-05-23T03:32:59.808Z,16.47
2023-05-23T03:33:59.667Z,16.56
2023-05-23T03:34:59.614Z,16.64
2023-05-23T03:35:59.583Z,16.54
2023-05-23T03:36:59.611Z,16.58
2023-05-23T03:37:59.568Z,16.65
2023-05-23T03:38:59.492Z,16.71
2023-05-23T03:39:59.522Z,16.74
2023-05-23T03:40:59.453Z,16.72
2023-05-23T03:41:59.405Z,16.76
2023-05-23T03:42:59.386Z,16.72
2023-05-23T03:43:59.455Z,16.71
2023-05-23T03:44:59.388Z,16.81
2023-05-23T03:45:59.344Z,16.84
2023-05-23T03:46:59.276Z,16.83
2023-05-23T03:47:59.285Z,16.87
2023-05-23T03:48:59.276Z,16.81
2023-05-23T03:49:59.159Z,16.86
2023-05-23T03:50:59.196Z,16.86
2023-05-23T03:51:59.115Z,16.86
2023-05-23T03:52:59.096Z,16.89
2023-05-23T03:53:59.052Z,16.90
2023-05-23T03:54:59.021Z,16.84
2023-05-23T03:55:58.980Z,16.89
2023-05-23T03:56:59.073Z,16.89
2023-05-23T03:57:59.014Z,16.86
2023-05-23T03:58:58.955Z,16.93
2023-05-23T03:59:58.876Z,16.89
2023-05-23T04:01:01.215Z,16.89
2023-05-23T04:01:58.952Z,16.90
2023-05-23T04:02:58.898Z,16.89
2023-05-23T04:03:58.821Z,16.89
2023-05-23T04:04:58.789Z,16.78
2023-05-23T04:05:58.781Z,16.69
2023-05-23T04:06:58.668Z,16.78
2023-05-23T04:07:58.635Z,16.81
2023-05-23T04:08:58.662Z,16.75
2023-05-23T04:09:58.580Z,16.71
2023-05-23T04:10:58.540Z,16.69
2023-05-23T04:11:58.590Z,16.65
2023-05-23T04:12:58.477Z,16.66
2023-05-23T04:13:58.457Z,16.57
2023-05-23T04:14:58.418Z,16.66
2023-05-23T04:15:58.470Z,16.66
2023-05-23T04:16:58.418Z,16.58
2023-05-23T04:17:58.377Z,16.57
2023-05-23T04:18:58.392Z,16.56
2023-05-23T04:20:01.342Z,16.54
2023-05-23T04:20:58.326Z,16.66
2023-05-23T04:21:58.256Z,16.66
2023-05-23T04:22:58.166Z,16.60
2023-05-23T04:23:58.139Z,16.58
2023-05-23T04:24:58.104Z,16.61
2023-05-23T04:25:58.072Z,16.57
2023-05-23T04:26:58.051Z,16.64
2023-05-23T04:27:58.493Z,16.61
2023-05-23T04:28:57.998Z,16.61
2023-05-23T04:29:57.972Z,16.57
2023-05-23T04:30:57.936Z,16.58
2023-05-23T04:31:57.905Z,16.66
2023-05-23T04:32:57.955Z,16.56
2023-05-23T04:33:57.855Z,16.57
2023-05-23T04:34:57.824Z,16.43
2023-05-23T04:35:57.788Z,16.49
2023-05-23T04:36:57.829Z,16.58
2023-05-23T04:37:57.790Z,16.51
2023-05-23T04:38:57.718Z,16.49
2023-05-23T04:39:57.660Z,16.49
2023-05-23T04:40:57.663Z,16.54
2023-05-23T04:41:57.616Z,16.42
2023-05-23T04:42:57.631Z,16.56
2023-05-23T04:43:57.553Z,16.47
2023-05-23T04:44:57.549Z,16.39
2023-05-23T04:45:57.489Z,16.43
2023-05-23T04:46:57.548Z,16.50
2023-05-23T04:47:57.511Z,16.41
2023-05-23T04:48:57.410Z,16.39
2023-05-23T04:49:57.413Z,16.50
2023-05-23T04:50:57.355Z,16.47
2023-05-23T04:51:57.402Z,16.53
2023-05-23T04:52:57.369Z,16.56
2023-05-23T04:53:57.312Z,16.56
2023-05-23T04:54:57.231Z,16.56
2023-05-23T04:55:57.194Z,16.57
2023-05-23T04:56:57.168Z,16.58
2023-05-23T04:57:57.141Z,16.64
2023-05-23T04:58:57.103Z,16.58
2023-05-23T04:59:57.139Z,16.54
2023-05-23T05:00:57.092Z,16.57
2023-05-23T05:01:57.025Z,16.56
2023-05-23T05:02:57.038Z,16.56
2023-05-23T05:03:57.007Z,16.51
2023-05-23T05:04:56.989Z,16.58
2023-05-23T05:05:56.903Z,16.65
2023-05-23T05:06:56.873Z,16.56
2023-05-23T05:07:56.848Z,16.60
2023-05-23T05:08:56.883Z,16.54
2023-05-23T05:09:58.606Z,16.60
2023-05-23T05:10:56.803Z,16.64
2023-05-23T05:11:56.722Z,16.58
2023-05-23T05:12:56.701Z,16.61
2023-05-23T05:13:56.667Z,16.66
2023-05-23T05:14:56.643Z,16.64
2023-05-23T05:15:56.608Z,16.65
2023-05-23T05:16:56.684Z,16.57
2023-05-23T05:17:56.586Z,16.64
2023-05-23T05:18:56.557Z,16.64
2023-05-23T05:19:56.492Z,16.64
2023-05-23T05:20:56.514Z,16.57
2023-05-23T05:21:56.429Z,16.68
2023-05-23T05:22:56.472Z,16.74
2023-05-23T05:23:56.364Z,16.83
2023-05-23T05:24:56.415Z,16.86
2023-05-23T05:25:56.323Z,16.78
2023-05-23T05:26:56.274Z,16.72
2023-05-23T05:27:56.287Z,16.79
2023-05-23T05:28:56.273Z,16.86
2023-05-23T05:29:56.192Z,16.72
2023-05-23T05:30:56.221Z,16.75
2023-05-23T05:31:56.151Z,16.69
2023-05-23T05:32:56.142Z,16.75
2023-05-23T05:33:56.078Z,16.74
2023-05-23T05:34:56.107Z,16.69
2023-05-23T05:35:56.016Z,16.71
2023-05-23T05:36:55.984Z,16.83
2023-05-23T05:37:55.956Z,16.79
2023-05-23T05:38:55.931Z,16.84
2023-05-23T05:39:55.962Z,16.86
2023-05-23T05:40:55.939Z,16.83
2023-05-23T05:41:55.832Z,16.84
2023-05-23T05:42:55.801Z,16.91
2023-05-23T05:43:55.817Z,16.86
2023-05-23T05:44:55.751Z,16.93
2023-05-23T05:45:55.850Z,16.90
2023-05-23T05:46:55.713Z,16.96
2023-05-23T05:47:55.697Z,17.06
2023-05-23T05:48:55.655Z,17.08
2023-05-23T05:49:55.605Z,17.09
2023-05-23T05:50:55.661Z,17.15
2023-05-23T05:51:55.548Z,17.19
2023-05-23T05:52:55.522Z,17.12
2023-05-23T05:53:55.500Z,17.14
2023-05-23T05:54:55.468Z,17.12
2023-05-23T05:55:56.349Z,17.15
2023-05-23T05:56:56.347Z,17.19
2023-05-23T05:57:55.376Z,17.14
2023-05-23T05:58:55.351Z,17.26
2023-05-23T05:59:55.317Z,17.29
2023-05-23T06:00:55.280Z,17.38
2023-05-23T06:01:55.256Z,17.48
2023-05-23T06:02:55.422Z,17.67
2023-05-23T06:03:55.408Z,17.87
2023-05-23T06:04:55.226Z,17.94
2023-05-23T06:05:55.141Z,17.92
2023-05-23T06:06:55.118Z,18.10
2023-05-23T06:07:55.159Z,18.10
2023-05-23T06:08:55.121Z,18.04
2023-05-23T06:09:55.024Z,18.05
2023-05-23T06:10:55.003Z,18.10
2023-05-23T06:11:54.972Z,18.15
2023-05-23T06:12:55.017Z,18.23
2023-05-23T06:13:54.965Z,18.10
2023-05-23T06:14:54.897Z,18.15
2023-05-23T06:15:54.894Z,18.03
2023-05-23T06:16:54.823Z,18.10
2023-05-23T06:17:54.837Z,18.15
2023-05-23T06:18:54.796Z,18.10
2023-05-23T06:19:54.795Z,18.04
2023-05-23T06:20:54.707Z,18.04
2023-05-23T06:21:54.697Z,18.03
2023-05-23T06:22:54.667Z,18.07
2023-05-23T06:23:54.628Z,18.16
2023-05-23T06:24:54.593Z,18.07
2023-05-23T06:25:54.724Z,18.05
2023-05-23T06:26:54.537Z,18.08
2023-05-23T06:27:54.510Z,18.08
2023-05-23T06:28:54.553Z,18.04
2023-05-23T06:29:54.460Z,17.95
2023-05-23T06:30:54.428Z,17.89
2023-05-23T06:31:54.475Z,17.92
2023-05-23T06:32:54.475Z,17.89
2023-05-23T06:33:54.344Z,17.92
2023-05-23T06:34:54.335Z,17.95
2023-05-23T06:35:54.284Z,18.01
2023-05-23T06:36:54.252Z,18.10
2023-05-23T06:37:54.290Z,18.15
2023-05-23T06:38:54.191Z,18.23
2023-05-23T06:39:54.176Z,18.20
2023-05-23T06:40:54.133Z,18.31
2023-05-23T06:41:54.113Z,18.31
2023-05-23T06:42:54.100Z,18.31
2023-05-23T06:43:54.125Z,18.22
2023-05-23T06:44:54.095Z,18.31
2023-05-23T06:45:54.062Z,18.35
2023-05-23T06:46:53.966Z,18.35
2023-05-23T06:47:54.017Z,18.40
2023-05-23T06:49:02.683Z,18.50
2023-05-23T06:49:53.983Z,18.52
2023-05-23T06:50:53.878Z,18.45
2023-05-23T06:51:53.970Z,18.52
2023-05-23T06:52:54.074Z,18.49
2023-05-23T06:53:53.776Z,18.38
2023-05-23T06:54:53.741Z,18.38
2023-05-23T06:55:53.763Z,18.41
2023-05-23T06:56:53.683Z,18.47
2023-05-23T06:57:53.664Z,18.44
2023-05-23T06:58:53.635Z,18.43
2023-05-23T06:59:53.625Z,18.45
2023-05-23T07:00:53.705Z,18.49
2023-05-23T07:01:53.598Z,18.43
2023-05-23T07:02:53.570Z,18.49
2023-05-23T07:03:53.489Z,18.37
2023-05-23T07:04:53.558Z,18.38
2023-05-23T07:05:53.460Z,18.41
2023-05-23T07:06:53.416Z,18.25
2023-05-23T07:07:53.454Z,18.29
2023-05-23T07:08:53.348Z,18.19
2023-05-23T07:09:53.326Z,18.31
2023-05-23T07:10:53.291Z,18.31
2023-05-23T07:11:53.260Z,18.31
2023-05-23T07:12:53.242Z,18.29
2023-05-23T07:13:53.296Z,18.47
2023-05-23T07:14:53.184Z,18.41
2023-05-23T07:15:53.143Z,18.49
2023-05-23T07:16:54.117Z,18.60
2023-05-23T07:17:53.271Z,18.63
2023-05-23T07:18:53.161Z,18.78
2023-05-23T07:19:53.033Z,18.81
2023-05-23T07:20:53.006Z,19.12
2023-05-23T07:21:52.977Z,19.12
2023-05-23T07:22:53.002Z,19.19
2023-05-23T07:23:52.980Z,19.29
2023-05-23T07:24:52.951Z,19.33
2023-05-23T07:26:01.749Z,19.44
2023-05-23T07:26:52.836Z,19.44
2023-05-23T07:27:52.804Z,19.45
2023-05-23T07:28:52.799Z,19.55
2023-05-23T07:29:52.753Z,19.66
2023-05-23T07:30:52.834Z,19.77
2023-05-23T07:31:52.767Z,19.77
2023-05-23T07:32:52.785Z,19.95
2023-05-23T07:33:55.633Z,20.07
2023-05-23T07:34:52.631Z,20.06
2023-05-23T07:35:52.590Z,20.18
2023-05-23T07:36:52.581Z,20.13
2023-05-23T07:37:52.589Z,20.06
2023-05-23T07:38:52.510Z,20.19
2023-05-23T07:39:52.490Z,20.25
2023-05-23T07:40:59.132Z,20.10
2023-05-23T07:41:52.425Z,20.29
2023-05-23T07:42:52.467Z,20.21
2023-05-23T07:43:52.392Z,20.19
2023-05-23T07:44:52.349Z,20.09
2023-05-23T07:45:52.327Z,20.26
2023-05-23T07:46:52.580Z,20.40
2023-05-23T07:47:52.303Z,20.51
2023-05-23T07:48:52.299Z,20.63
2023-05-23T07:49:52.230Z,20.69
2023-05-23T07:50:52.188Z,20.37
2023-05-23T07:51:52.163Z,20.25
2023-05-23T07:52:52.147Z,20.14
2023-05-23T07:53:52.131Z,20.04
2023-05-23T07:54:52.142Z,20.18
2023-05-23T07:55:52.085Z,20.24
2023-05-23T07:56:52.040Z,20.13
2023-05-23T07:57:52.027Z,20.04
2023-05-23T07:58:52.002Z,19.92
2023-05-23T07:59:51.977Z,20.02
2023-05-23T08:00:52.976Z,20.00
2023-05-23T08:01:51.955Z,20.14
2023-05-23T08:02:51.922Z,20.24
2023-05-23T08:03:51.884Z,20.19
2023-05-23T08:04:51.841Z,20.14
2023-05-23T08:05:51.920Z,20.10
2023-05-23T08:07:05.130Z,20.03
2023-05-23T08:07:51.748Z,19.99
2023-05-23T08:08:51.729Z,19.92
2023-05-23T08:09:51.701Z,19.91
2023-05-23T08:10:51.699Z,20.06
2023-05-23T08:11:52.076Z,20.10
2023-05-23T08:12:51.632Z,20.25
2023-05-23T08:13:51.625Z,20.25
2023-05-23T08:14:52.613Z,20.19
2023-05-23T08:15:51.550Z,20.11
2023-05-23T08:16:51.672Z,19.88
2023-05-23T08:17:51.703Z,19.79
2023-05-23T08:18:51.495Z,19.69
2023-05-23T08:19:51.442Z,19.69
2023-05-23T08:20:51.426Z,19.73
2023-05-23T08:21:51.414Z,19.73
2023-05-23T08:22:51.372Z,19.73
2023-05-23T08:23:51.426Z,19.71
2023-05-23T08:24:51.340Z,19.70
2023-05-23T08:25:51.290Z,19.55
2023-05-23T08:26:51.347Z,19.58
2023-05-23T08:27:51.237Z,19.58
2023-05-23T08:28:51.241Z,19.62
2023-05-23T08:29:51.252Z,19.66
2023-05-23T08:30:51.217Z,19.74
2023-05-23T08:31:51.206Z,19.73
2023-05-23T08:32:51.126Z,19.88
2023-05-23T08:33:51.094Z,19.85
2023-05-23T08:34:51.120Z,19.92
2023-05-23T08:35:51.047Z,19.82
2023-05-23T08:36:51.023Z,19.76
2023-05-23T08:37:51.027Z,19.66
2023-05-23T08:38:50.952Z,19.70
2023-05-23T08:39:50.982Z,19.64
2023-05-23T08:40:50.898Z,19.64
2023-05-23T08:41:50.866Z,19.45
2023-05-23T08:42:51.035Z,19.29
2023-05-23T08:43:50.837Z,19.40
2023-05-23T08:44:51.604Z,19.52
2023-05-23T08:45:50.872Z,19.56
2023-05-23T08:46:50.730Z,19.71
2023-05-23T08:47:50.782Z,19.96
2023-05-23T08:48:50.690Z,20.07
2023-05-23T08:49:50.653Z,20.32
2023-05-23T08:50:50.636Z,20.37
2023-05-23T08:51:50.673Z,20.28
2023-05-23T08:52:50.577Z,20.11
2023-05-23T08:53:53.093Z,20.09
2023-05-23T08:54:50.532Z,20.09
2023-05-23T08:55:50.554Z,20.21
2023-05-23T08:56:50.478Z,20.14
2023-05-23T08:57:50.498Z,20.29
2023-05-23T08:58:50.427Z,20.37
2023-05-23T08:59:50.419Z,20.48
2023-05-23T09:00:50.365Z,20.51
2023-05-23T09:01:50.377Z,20.60
2023-05-23T09:02:50.396Z,20.65
2023-05-23T09:03:50.346Z,20.75
2023-05-23T09:04:50.372Z,20.80
2023-05-23T09:05:50.344Z,20.50
2023-05-23T09:06:50.208Z,20.29
2023-05-23T09:07:50.182Z,20.26
2023-05-23T09:08:50.154Z,20.16
2023-05-23T09:09:50.199Z,20.28
2023-05-23T09:10:50.102Z,20.43
2023-05-23T09:11:50.077Z,20.50
2023-05-23T09:12:50.099Z,20.55
2023-05-23T09:13:50.061Z,20.62
2023-05-23T09:14:50.082Z,20.60
2023-05-23T09:15:50.021Z,20.63
2023-05-23T09:16:49.964Z,20.63
2023-05-23T09:17:49.955Z,20.75
2023-05-23T09:18:50.012Z,20.90
2023-05-23T09:19:49.887Z,20.84
2023-05-23T09:20:49.905Z,20.82
2023-05-23T09:21:49.881Z,20.72
2023-05-23T09:22:49.796Z,20.43
2023-05-23T09:23:49.774Z,20.37
2023-05-23T09:24:49.747Z,20.25
2023-05-23T09:25:49.739Z,20.31
2023-05-23T09:26:49.700Z,20.18
2023-05-23T09:27:49.728Z,20.11
2023-05-23T09:28:49.644Z,19.86
2023-05-23T09:29:49.615Z,19.92
2023-05-23T09:30:49.732Z,19.88
2023-05-23T09:31:49.728Z,19.85
2023-05-23T09:32:49.571Z,19.85
2023-05-23T09:33:49.589Z,19.63
2023-05-23T09:34:49.479Z,19.69
2023-05-23T09:35:49.457Z,19.48
2023-05-23T09:36:49.426Z,19.63
2023-05-23T09:37:49.407Z,19.63
2023-05-23T09:38:49.383Z,19.69
2023-05-23T09:39:49.438Z,19.58
2023-05-23T09:40:49.332Z,19.54
2023-05-23T09:41:49.338Z,19.48
2023-05-23T09:42:49.347Z,19.39
2023-05-23T09:43:49.241Z,19.33
2023-05-23T09:44:49.219Z,19.29
2023-05-23T09:45:49.194Z,19.33
2023-05-23T09:46:49.240Z,19.30
2023-05-23T09:47:49.172Z,19.27
2023-05-23T09:48:49.166Z,19.26
2023-05-23T09:49:49.080Z,19.24
2023-05-23T09:50:49.112Z,19.34
2023-05-23T09:51:49.024Z,19.27
2023-05-23T09:52:49.006Z,19.12
2023-05-23T09:53:49.039Z,18.99
2023-05-23T09:54:48.952Z,18.89
2023-05-23T09:55:49.133Z,18.86
2023-05-23T09:56:48.928Z,18.75
2023-05-23T09:57:48.937Z,18.80
2023-05-23T09:58:48.837Z,18.83
2023-05-23T09:59:48.909Z,18.80
2023-05-23T10:00:48.805Z,18.71
2023-05-23T10:01:48.743Z,18.77
2023-05-23T10:02:48.777Z,18.80
2023-05-23T10:03:48.772Z,18.80
2023-05-23T10:04:48.726Z,18.75
2023-05-23T10:05:48.746Z,18.77
2023-05-23T10:06:48.625Z,18.78
2023-05-23T10:07:48.586Z,18.80
2023-05-23T10:08:48.561Z,18.70
2023-05-23T10:09:48.530Z,18.78
2023-05-23T10:10:48.513Z,18.78
2023-05-23T10:11:48.530Z,18.66
2023-05-23T10:12:48.448Z,18.80
2023-05-23T10:13:48.420Z,18.92
2023-05-23T10:14:48.394Z,18.95
2023-05-23T10:15:48.371Z,18.95
2023-05-23T10:16:48.397Z,18.96
2023-05-23T10:17:48.400Z,18.98
2023-05-23T10:18:48.340Z,19.07
2023-05-23T10:19:48.288Z,19.16
2023-05-23T10:20:48.237Z,19.24
2023-05-23T10:21:48.210Z,19.34
2023-05-23T10:22:48.181Z,19.47
2023-05-23T10:23:48.238Z,19.56
2023-05-23T10:24:48.122Z,19.64
2023-05-23T10:25:48.083Z,19.84
2023-05-23T10:26:48.066Z,19.95
2023-05-23T10:27:48.038Z,19.99
2023-05-23T10:28:48.014Z,20.02
2023-05-23T10:29:48.035Z,20.04
2023-05-23T10:30:48.001Z,20.03
2023-05-23T10:31:47.923Z,20.13
2023-05-23T10:32:47.976Z,19.88
2023-05-23T10:33:47.873Z,19.86
2023-05-23T10:34:47.849Z,19.76
2023-05-23T10:35:48.019Z,19.66
2023-05-23T10:36:47.781Z,19.69
2023-05-23T10:37:47.753Z,19.48
2023-05-23T10:38:50.046Z,19.41
2023-05-23T10:39:47.726Z,19.41
2023-05-23T10:40:47.687Z,19.48
2023-05-23T10:41:47.739Z,19.55
2023-05-23T10:42:47.625Z,19.59
2023-05-23T10:43:47.622Z,19.58
2023-05-23T10:44:47.563Z,19.66
2023-05-23T10:45:47.547Z,19.66
2023-05-23T10:46:47.593Z,19.77
2023-05-23T10:47:47.588Z,19.99
2023-05-23T10:48:47.456Z,20.11
2023-05-23T10:49:47.443Z,20.19
2023-05-23T10:50:47.416Z,20.39
2023-05-23T10:51:48.213Z,20.58
2023-05-23T10:52:47.347Z,20.60
2023-05-23T10:53:47.375Z,20.59
2023-05-23T10:54:47.309Z,20.75
2023-05-23T10:55:47.267Z,21.03
2023-05-23T10:56:47.250Z,21.30
2023-05-23T10:57:48.133Z,21.43
2023-05-23T10:58:47.193Z,21.69
2023-05-23T10:59:47.627Z,21.77
2023-05-23T11:00:47.150Z,22.04
2023-05-23T11:01:47.248Z,22.10
2023-05-23T11:02:47.141Z,22.36
2023-05-23T11:03:47.222Z,22.44
2023-05-23T11:04:47.074Z,22.57
2023-05-23T11:05:47.068Z,22.53
2023-05-23T11:06:46.982Z,22.53
2023-05-23T11:07:46.979Z,22.39
2023-05-23T11:08:48.884Z,22.25
2023-05-23T11:09:46.922Z,22.11
2023-05-23T11:10:46.885Z,21.91
2023-05-23T11:11:46.920Z,21.83
2023-05-23T11:12:46.851Z,21.77
2023-05-23T11:13:46.813Z,21.73
2023-05-23T11:14:46.786Z,21.79
2023-05-23T11:15:46.759Z,21.77
2023-05-23T11:16:46.906Z,21.79
2023-05-23T11:17:46.815Z,21.80
2023-05-23T11:18:46.786Z,22.00
2023-05-23T11:19:46.663Z,22.17
2023-05-23T11:20:46.664Z,22.38
2023-05-23T11:21:46.609Z,22.63
2023-05-23T11:22:46.584Z,22.75
2023-05-23T11:23:46.642Z,22.70
2023-05-23T11:24:46.590Z,22.65
2023-05-23T11:25:46.525Z,22.55
2023-05-23T11:26:46.504Z,22.47
2023-05-23T11:27:46.471Z,22.43
2023-05-23T11:28:46.449Z,22.28
2023-05-23T11:29:46.481Z,22.07
2023-05-23T11:30:46.406Z,22.02
2023-05-23T11:31:46.447Z,21.43
2023-05-23T11:32:46.349Z,21.02
2023-05-23T11:33:46.316Z,20.85
2023-05-23T11:34:46.304Z,20.72
2023-05-23T11:35:46.331Z,20.59
2023-05-23T11:36:46.259Z,20.50
2023-05-23T11:37:46.227Z,20.44
2023-05-23T11:38:46.214Z,20.47
2023-05-23T11:39:46.189Z,20.36
2023-05-23T11:40:46.446Z,20.39
2023-05-23T11:41:46.188Z,20.24
2023-05-23T11:42:46.146Z,20.22
2023-05-23T11:43:46.111Z,20.18
2023-05-23T11:44:46.055Z,20.11
2023-05-23T11:45:46.056Z,20.09
2023-05-23T11:46:46.008Z,20.11
2023-05-23T11:47:46.116Z,19.99
2023-05-23T11:48:45.981Z,19.91
2023-05-23T11:49:45.932Z,19.95
2023-05-23T11:50:45.936Z,19.96
2023-05-23T11:51:45.873Z,19.92
2023-05-23T11:52:45.853Z,19.84
2023-05-23T11:53:45.974Z,19.79
2023-05-23T11:54:45.808Z,19.76
2023-05-23T11:55:45.769Z,19.71
2023-05-23T11:56:45.738Z,19.63
2023-05-23T11:57:45.712Z,19.58
2023-05-23T11:58:46.585Z,19.40
2023-05-23T11:59:45.795Z,19.33
2023-05-23T12:00:45.640Z,19.30
2023-05-23T12:01:45.611Z,19.41
2023-05-23T12:02:45.633Z,19.39
2023-05-23T12:03:45.702Z,19.27
2023-05-23T12:04:45.584Z,19.18
2023-05-23T12:05:45.597Z,19.14
2023-05-23T12:06:45.468Z,19.12
2023-05-23T12:07:45.478Z,19.24
2023-05-23T12:08:45.499Z,19.16
2023-05-23T12:09:45.972Z,19.18
2023-05-23T12:10:46.085Z,19.15
2023-05-23T12:11:45.396Z,19.22
2023-05-23T12:12:45.371Z,19.24
2023-05-23T12:13:45.273Z,19.41
2023-05-23T12:14:45.250Z,19.45
2023-05-23T12:15:45.246Z,19.55
2023-05-23T12:16:45.350Z,19.66
2023-05-23T12:17:45.273Z,19.76
2023-05-23T12:18:45.144Z,19.84
2023-05-23T12:19:45.174Z,19.82
2023-05-23T12:20:45.094Z,19.74
2023-05-23T12:21:45.062Z,19.81
2023-05-23T12:22:45.074Z,19.69
2023-05-23T12:23:45.022Z,19.64
2023-05-23T12:24:44.984Z,19.56
2023-05-23T12:25:44.963Z,19.56
2023-05-23T12:26:44.944Z,19.64
2023-05-23T12:27:46.482Z,19.44
2023-05-23T12:28:44.938Z,19.31
2023-05-23T12:29:44.944Z,19.22
2023-05-23T12:30:44.820Z,19.18
2023-05-23T12:31:44.879Z,19.34
2023-05-23T12:32:44.892Z,19.30
2023-05-23T12:33:44.731Z,19.41
2023-05-23T12:34:44.711Z,19.33
2023-05-23T12:35:44.685Z,19.44
2023-05-23T12:36:49.128Z,19.36
2023-05-23T12:37:44.619Z,19.44
2023-05-23T12:38:44.663Z,19.39
2023-05-23T12:39:44.565Z,19.34
2023-05-23T12:40:44.551Z,19.31
2023-05-23T12:41:44.508Z,19.29
2023-05-23T12:42:44.487Z,19.24
2023-05-23T12:43:44.453Z,19.12
2023-05-23T12:44:44.487Z,19.11
2023-05-23T12:45:44.477Z,19.08
2023-05-23T12:46:44.401Z,19.16
2023-05-23T12:47:44.482Z,19.21
2023-05-23T12:48:44.337Z,19.22
2023-05-23T12:49:44.318Z,19.21
2023-05-23T12:50:44.329Z,19.22
2023-05-23T12:51:44.241Z,19.21